createdAt,value
2019-03-15T00:02:05.461Z,3.57
2019-03-15T00:04:33.533Z,3.83
2019-03-15T00:07:01.653Z,2.80
2019-03-15T00:09:29.889Z,3.03
2019-03-15T00:11:57.970Z,2.90
2019-03-15T00:14:27.574Z,2.70
2019-03-15T00:16:55.730Z,2.03
2019-03-15T00:19:23.802Z,2.70
2019-03-15T00:21:52.271Z,2.50
2019-03-15T00:24:20.558Z,2.83
2019-03-15T00:26:48.678Z,2.50
2019-03-15T00:29:16.898Z,2.03
2019-03-15T00:31:45.295Z,2.37
2019-03-15T00:34:13.322Z,2.53
2019-03-15T00:36:41.438Z,2.97
2019-03-15T00:39:09.941Z,2.50
2019-03-15T00:41:37.993Z,2.13
2019-03-15T00:44:06.405Z,2.50
2019-03-15T00:46:34.481Z,2.13
2019-03-15T00:49:02.545Z,2.43
2019-03-15T00:51:30.751Z,2.70
2019-03-15T00:53:58.832Z,2.67
2019-03-15T00:56:28.382Z,2.23
2019-03-15T00:58:56.608Z,2.80
2019-03-15T01:01:24.706Z,2.20
2019-03-15T01:03:53.180Z,3.07
2019-03-15T01:06:21.626Z,2.80
2019-03-15T01:08:49.750Z,2.70
2019-03-15T01:11:17.958Z,3.17
2019-03-15T01:13:46.305Z,3.10
2019-03-15T01:16:14.572Z,2.80
2019-03-15T01:18:42.701Z,2.47
2019-03-15T01:21:11.097Z,2.93
2019-03-15T01:23:39.441Z,2.77
2019-03-15T01:26:07.812Z,2.90
2019-03-15T01:28:36.154Z,3.23
2019-03-15T01:31:04.672Z,2.87
2019-03-15T01:33:33.764Z,2.90
2019-03-15T01:36:02.213Z,2.77
2019-03-15T01:38:30.341Z,3.17
2019-03-15T01:40:58.482Z,2.70
2019-03-15T01:43:27.824Z,2.87
2019-03-15T01:45:55.883Z,3.30
2019-03-15T01:48:23.961Z,2.90
2019-03-15T01:50:52.432Z,2.83
2019-03-15T01:53:20.478Z,3.23
2019-03-15T01:55:48.553Z,2.93
2019-03-15T01:58:16.690Z,3.07
2019-03-15T02:00:45.409Z,3.33
2019-03-15T02:03:13.672Z,3.30
2019-03-15T02:05:42.475Z,2.87
2019-03-15T02:08:10.853Z,2.87
2019-03-15T02:10:39.419Z,3.00
2019-03-15T02:13:07.684Z,3.43
2019-03-15T02:15:35.759Z,3.50
2019-03-15T02:18:03.833Z,3.00
2019-03-15T02:20:31.953Z,2.70
2019-03-15T02:22:59.997Z,3.10
2019-03-15T02:25:28.053Z,2.60
2019-03-15T02:27:56.164Z,2.83
2019-03-15T02:30:24.213Z,2.70
2019-03-15T02:32:52.278Z,3.03
2019-03-15T02:35:20.681Z,2.53
2019-03-15T02:37:48.760Z,2.83
2019-03-15T02:40:16.805Z,3.00
2019-03-15T02:42:45.514Z,3.00
2019-03-15T02:45:13.553Z,2.73
2019-03-15T02:47:41.638Z,2.63
2019-03-15T02:50:09.933Z,2.83
2019-03-15T02:52:38.087Z,2.33
2019-03-15T02:55:06.293Z,2.83
2019-03-15T02:57:35.463Z,2.87
2019-03-15T03:00:03.921Z,2.30
2019-03-15T03:02:31.972Z,2.27
2019-03-15T03:05:00.307Z,2.20
2019-03-15T03:07:28.735Z,2.73
2019-03-15T03:09:56.953Z,2.40
2019-03-15T03:12:25.067Z,2.93
2019-03-15T03:14:53.150Z,2.80
2019-03-15T03:17:21.222Z,2.50
2019-03-15T03:19:49.526Z,2.97
2019-03-15T03:22:17.580Z,3.10
2019-03-15T03:24:45.662Z,3.10
2019-03-15T03:27:13.771Z,2.60
2019-03-15T03:29:41.872Z,3.00
2019-03-15T03:32:09.902Z,2.40
2019-03-15T03:34:40.458Z,2.37
2019-03-15T03:37:08.073Z,2.93
2019-03-15T03:39:36.138Z,2.70
2019-03-15T03:42:04.588Z,2.10
2019-03-15T03:44:32.660Z,2.77
2019-03-15T03:47:00.721Z,2.43
2019-03-15T03:49:28.918Z,2.10
2019-03-15T03:51:56.965Z,2.43
2019-03-15T03:54:25.043Z,1.80
2019-03-15T03:56:53.285Z,2.03
2019-03-15T03:59:21.341Z,1.93
2019-03-15T04:01:49.395Z,1.80
2019-03-15T04:04:17.597Z,2.07
2019-03-15T04:06:45.671Z,2.20
2019-03-15T04:09:13.712Z,2.53
2019-03-15T04:11:54.653Z,1.73
2019-03-15T04:14:11.873Z,2.90
2019-03-15T04:16:39.933Z,2.07
2019-03-15T04:19:08.474Z,2.63
2019-03-15T04:21:36.635Z,2.27
2019-03-15T04:24:04.919Z,2.53
2019-03-15T04:26:33.115Z,2.60
2019-03-15T04:29:01.285Z,2.63
2019-03-15T04:31:29.515Z,2.83
2019-03-15T04:33:58.849Z,2.70
2019-03-15T04:36:26.914Z,2.60
2019-03-15T04:38:54.965Z,2.20
2019-03-15T04:41:23.123Z,2.67
2019-03-15T04:43:51.204Z,2.50
2019-03-15T04:46:19.264Z,3.17
2019-03-15T04:48:47.558Z,3.53
2019-03-15T04:51:15.811Z,2.97
2019-03-15T04:53:44.310Z,3.67
2019-03-15T04:56:12.429Z,4.60
2019-03-15T04:58:40.503Z,4.30
2019-03-15T05:01:08.609Z,4.40
2019-03-15T05:03:37.119Z,5.10
2019-03-15T05:06:05.306Z,4.93
2019-03-15T05:08:33.680Z,5.20
2019-03-15T05:11:02.054Z,5.80
2019-03-15T05:13:30.454Z,5.70
2019-03-15T05:15:58.873Z,6.30
2019-03-15T05:18:27.146Z,5.60
2019-03-15T05:20:55.202Z,6.00
2019-03-15T05:23:23.253Z,5.13
2019-03-15T05:25:51.410Z,5.90
2019-03-15T05:28:19.501Z,5.23
2019-03-15T05:30:47.904Z,4.93
2019-03-15T05:33:16.107Z,5.60
2019-03-15T05:35:44.202Z,5.70
2019-03-15T05:38:12.249Z,5.62
2019-03-15T05:40:40.377Z,6.33
2019-03-15T05:43:08.446Z,5.50
2019-03-15T05:45:36.509Z,5.47
2019-03-15T05:48:04.841Z,5.17
2019-03-15T05:50:32.898Z,6.37
2019-03-15T05:53:00.986Z,5.20
2019-03-15T05:55:29.179Z,5.87
2019-03-15T05:57:57.230Z,5.97
2019-03-15T06:00:25.323Z,5.63
2019-03-15T06:02:53.513Z,6.40
2019-03-15T06:05:21.585Z,6.73
2019-03-15T06:07:49.649Z,6.40
2019-03-15T06:10:18.019Z,6.23
2019-03-15T06:12:46.091Z,5.63
2019-03-15T06:15:14.897Z,6.00
2019-03-15T06:17:43.045Z,6.37
2019-03-15T06:20:11.098Z,6.07
2019-03-15T06:22:39.173Z,5.43
2019-03-15T06:25:07.366Z,5.87
2019-03-15T06:27:35.423Z,5.60
2019-03-15T06:30:03.608Z,6.10
2019-03-15T06:32:31.796Z,5.97
2019-03-15T06:34:59.839Z,5.90
2019-03-15T06:37:27.906Z,5.43
2019-03-15T06:39:56.016Z,6.37
2019-03-15T06:42:24.074Z,5.73
2019-03-15T06:44:57.997Z,7.43
2019-03-15T06:47:22.044Z,6.57
2019-03-15T06:49:50.097Z,6.50
2019-03-15T06:52:18.178Z,5.83
2019-03-15T06:54:46.289Z,6.00
2019-03-15T06:57:14.339Z,6.13
2019-03-15T06:59:42.408Z,6.07
2019-03-15T07:02:10.522Z,6.20
2019-03-15T07:04:38.592Z,6.27
2019-03-15T07:07:06.669Z,5.90
2019-03-15T07:09:35.017Z,5.63
2019-03-15T07:12:09.183Z,5.50
2019-03-15T07:14:32.795Z,6.33
2019-03-15T07:17:01.258Z,5.37
2019-03-15T07:19:30.662Z,5.87
2019-03-15T07:21:58.837Z,5.23
2019-03-15T07:24:26.945Z,6.10
2019-03-15T07:26:55.018Z,5.70
2019-03-15T07:29:23.205Z,5.70
2019-03-15T07:31:51.424Z,5.43
2019-03-15T07:34:19.514Z,5.90
2019-03-15T07:36:47.566Z,6.03
2019-03-15T07:39:16.046Z,5.40
2019-03-15T07:41:45.293Z,6.27
2019-03-15T07:44:13.302Z,6.00
2019-03-15T07:46:41.488Z,6.87
2019-03-15T07:49:09.569Z,7.00
2019-03-15T07:51:37.641Z,5.97
2019-03-15T07:54:05.781Z,5.93
2019-03-15T07:56:33.839Z,6.27
2019-03-15T07:59:01.977Z,7.53
2019-03-15T08:01:30.169Z,5.93
2019-03-15T08:03:58.244Z,6.53
2019-03-15T08:06:34.824Z,6.10
2019-03-15T08:08:56.101Z,6.10
2019-03-15T08:11:24.174Z,6.33
2019-03-15T08:13:52.245Z,6.20
2019-03-15T08:16:20.443Z,6.47
2019-03-15T08:18:48.932Z,6.47
2019-03-15T08:21:17.021Z,6.27
2019-03-15T08:23:45.218Z,6.10
2019-03-15T08:26:13.291Z,6.03
2019-03-15T08:28:41.390Z,6.73
2019-03-15T08:31:09.718Z,6.70
2019-03-15T08:33:37.785Z,7.00
2019-03-15T08:36:05.859Z,6.87
2019-03-15T08:38:46.648Z,7.10
2019-03-15T08:41:03.866Z,7.10
2019-03-15T08:43:31.942Z,6.93
2019-03-15T08:46:02.773Z,7.00
2019-03-15T08:48:31.950Z,7.50
2019-03-15T08:50:59.582Z,6.73
2019-03-15T08:53:27.725Z,6.57
2019-03-15T08:55:55.782Z,7.50
2019-03-15T08:58:23.842Z,7.43
2019-03-15T09:00:52.070Z,7.67
2019-03-15T09:03:27.867Z,7.70
2019-03-15T09:05:49.853Z,7.73
2019-03-15T09:08:18.242Z,7.67
2019-03-15T09:10:46.325Z,8.33
2019-03-15T09:13:14.381Z,8.80
2019-03-15T09:15:42.486Z,9.00
2019-03-15T09:18:10.536Z,9.33
2019-03-15T09:20:38.913Z,9.03
2019-03-15T09:23:07.013Z,9.73
2019-03-15T09:25:35.057Z,8.43
2019-03-15T09:28:03.093Z,8.53
2019-03-15T09:30:31.320Z,10.47
2019-03-15T09:33:02.773Z,9.30
2019-03-15T09:35:29.120Z,9.63
2019-03-15T09:37:57.323Z,9.70
2019-03-15T09:40:26.111Z,9.10
2019-03-15T09:42:54.273Z,9.00
2019-03-15T09:45:22.622Z,8.83
2019-03-15T09:47:50.665Z,8.27
2019-03-15T09:50:33.186Z,7.80
2019-03-15T09:52:48.664Z,8.37
2019-03-15T09:55:16.723Z,7.53
2019-03-15T09:57:45.081Z,7.27
2019-03-15T10:00:14.285Z,6.77
2019-03-15T10:02:42.353Z,5.43
2019-03-15T10:05:11.760Z,5.93
2019-03-15T10:07:43.101Z,6.53
2019-03-15T10:10:13.942Z,5.80
2019-03-15T10:12:41.354Z,5.13
2019-03-15T10:15:10.666Z,5.17
2019-03-15T10:17:39.630Z,5.13
2019-03-15T10:20:08.259Z,5.13
2019-03-15T10:22:36.694Z,5.07
2019-03-15T10:25:04.911Z,5.13
2019-03-15T10:27:32.982Z,4.77
2019-03-15T10:30:01.081Z,4.70
2019-03-15T10:32:29.203Z,4.70
2019-03-15T10:34:57.301Z,5.00
2019-03-15T10:37:25.609Z,5.20
2019-03-15T10:39:53.753Z,5.20
2019-03-15T10:42:21.918Z,4.90
2019-03-15T10:44:50.026Z,4.77
2019-03-15T10:47:18.104Z,6.20
2019-03-15T10:49:46.208Z,5.43
2019-03-15T10:52:14.424Z,5.30
2019-03-15T10:54:42.497Z,4.80
2019-03-15T10:57:10.606Z,6.23
2019-03-15T10:59:38.825Z,5.70
2019-03-15T11:02:06.974Z,5.90
2019-03-15T11:04:35.025Z,6.23
2019-03-15T11:07:03.183Z,6.17
2019-03-15T11:09:31.347Z,6.20
2019-03-15T11:11:59.474Z,6.23
2019-03-15T11:14:27.601Z,6.30
2019-03-15T11:16:55.665Z,6.00
2019-03-15T11:19:26.692Z,6.27
2019-03-15T11:21:55.038Z,6.80
2019-03-15T11:24:23.420Z,5.60
2019-03-15T11:26:51.492Z,6.07
2019-03-15T11:29:21.501Z,7.53
2019-03-15T11:31:49.601Z,6.67
2019-03-15T11:34:17.754Z,7.70
2019-03-15T11:36:57.753Z,6.30
2019-03-15T11:39:19.332Z,6.77
2019-03-15T11:41:47.504Z,7.53
2019-03-15T11:44:16.757Z,6.97
2019-03-15T11:46:44.932Z,6.13
2019-03-15T11:49:15.649Z,7.50
2019-03-15T11:51:45.074Z,7.17
2019-03-15T11:54:15.337Z,7.80
2019-03-15T11:56:43.440Z,7.07
2019-03-15T11:59:11.749Z,6.77
2019-03-15T12:01:40.943Z,9.17
2019-03-15T12:04:10.825Z,6.20
2019-03-15T12:06:39.045Z,5.77
2019-03-15T12:09:07.709Z,6.03
2019-03-15T12:11:35.922Z,5.53
2019-03-15T12:14:04.397Z,5.60
2019-03-15T12:16:32.445Z,10.77
2019-03-15T12:19:00.597Z,4.57
2019-03-15T12:21:28.757Z,4.70
2019-03-15T12:23:56.903Z,5.83
2019-03-15T12:26:39.483Z,3.90
2019-03-15T12:28:57.174Z,3.80
2019-03-15T12:31:26.433Z,3.60
2019-03-15T12:33:54.634Z,4.20
2019-03-15T12:36:23.157Z,3.70
2019-03-15T12:38:51.277Z,3.90
2019-03-15T12:41:19.557Z,4.30
2019-03-15T12:43:47.953Z,4.07
2019-03-15T12:46:18.167Z,4.27
2019-03-15T12:48:46.427Z,4.00
2019-03-15T12:51:16.458Z,4.30
2019-03-15T12:53:44.544Z,3.53
2019-03-15T12:56:12.739Z,3.10
2019-03-15T12:58:41.058Z,3.67
2019-03-15T13:01:09.158Z,4.30
2019-03-15T13:03:37.359Z,3.50
2019-03-15T13:06:06.615Z,3.60
2019-03-15T13:08:34.743Z,3.50
2019-03-15T13:11:02.888Z,3.50
2019-03-15T13:13:31.610Z,4.50
2019-03-15T13:15:59.786Z,2.80
2019-03-15T13:18:27.964Z,2.87
2019-03-15T13:20:57.213Z,3.23
2019-03-15T13:23:25.286Z,3.33
2019-03-15T13:25:54.677Z,2.53
2019-03-15T13:28:23.306Z,3.10
2019-03-15T13:30:51.415Z,3.03
2019-03-15T13:33:21.126Z,2.73
2019-03-15T13:35:49.734Z,2.80
2019-03-15T13:38:17.916Z,2.67
2019-03-15T13:40:46.588Z,2.77
2019-03-15T13:43:14.819Z,2.50
2019-03-15T13:45:44.064Z,3.00
2019-03-15T13:48:12.246Z,3.80
2019-03-15T13:50:40.520Z,2.80
2019-03-15T13:53:09.606Z,2.97
2019-03-15T13:55:37.677Z,2.50
2019-03-15T13:58:05.978Z,2.23
2019-03-15T14:00:35.053Z,2.60
2019-03-15T14:03:03.253Z,2.47
2019-03-15T14:05:31.524Z,2.60
2019-03-15T14:08:11.089Z,3.47
2019-03-15T14:10:29.529Z,2.60
2019-03-15T14:12:57.784Z,3.20
2019-03-15T14:15:25.914Z,2.73
2019-03-15T14:17:54.070Z,3.70
2019-03-15T14:20:22.390Z,2.90
2019-03-15T14:22:50.534Z,4.10
2019-03-15T14:25:20.058Z,2.87
2019-03-15T14:27:48.411Z,3.50
2019-03-15T14:30:17.830Z,2.70
2019-03-15T14:32:46.690Z,2.97
2019-03-15T14:35:14.929Z,2.60
2019-03-15T14:37:44.332Z,3.13
2019-03-15T14:40:12.975Z,3.80
2019-03-15T14:42:41.539Z,3.07
2019-03-15T14:45:10.111Z,3.23
2019-03-15T14:47:38.339Z,3.37
2019-03-15T14:50:06.502Z,3.47
2019-03-15T14:52:34.581Z,2.77
2019-03-15T14:55:02.676Z,4.40
2019-03-15T14:57:30.826Z,3.70
2019-03-15T15:00:00.062Z,3.80
2019-03-15T15:02:29.377Z,4.20
2019-03-15T15:04:57.978Z,6.27
2019-03-15T15:07:26.041Z,3.73
2019-03-15T15:09:54.205Z,7.10
2019-03-15T15:12:22.488Z,4.00
2019-03-15T15:14:50.776Z,5.37
2019-03-15T15:17:19.033Z,6.17
2019-03-15T15:19:47.177Z,6.17
2019-03-15T15:22:15.915Z,3.40
2019-03-15T15:24:44.151Z,3.47
2019-03-15T15:27:12.382Z,4.47
2019-03-15T15:29:41.484Z,4.10
2019-03-15T15:32:09.873Z,4.07
2019-03-15T15:34:38.240Z,4.03
2019-03-15T15:37:07.922Z,4.27
2019-03-15T15:39:36.299Z,4.03
2019-03-15T15:42:05.445Z,4.33
2019-03-15T15:44:33.741Z,5.90
2019-03-15T15:47:03.678Z,4.63
2019-03-15T15:49:33.346Z,3.73
2019-03-15T15:52:01.423Z,4.00
2019-03-15T15:54:30.932Z,4.33
2019-03-15T15:56:59.137Z,4.10
2019-03-15T15:59:28.439Z,3.80
2019-03-15T16:01:57.602Z,5.13
2019-03-15T16:04:26.007Z,4.67
2019-03-15T16:06:54.184Z,4.27
2019-03-15T16:09:22.274Z,4.30
2019-03-15T16:11:50.780Z,4.23
2019-03-15T16:14:18.824Z,4.33
2019-03-15T16:16:46.906Z,4.10
2019-03-15T16:19:16.517Z,4.73
2019-03-15T16:21:44.600Z,4.73
2019-03-15T16:24:14.141Z,4.60
2019-03-15T16:26:44.235Z,4.70
2019-03-15T16:29:12.315Z,4.87
2019-03-15T16:31:40.597Z,4.43
2019-03-15T16:34:09.217Z,4.50
2019-03-15T16:36:39.093Z,4.20
2019-03-15T16:39:07.474Z,3.93
2019-03-15T16:41:35.849Z,4.47
2019-03-15T16:44:03.889Z,4.83
2019-03-15T16:46:31.959Z,4.50
2019-03-15T16:49:00.275Z,4.30
2019-03-15T16:51:28.479Z,5.27
2019-03-15T16:53:56.632Z,4.37
2019-03-15T16:56:25.129Z,4.03
2019-03-15T16:58:53.242Z,3.80
2019-03-15T17:01:21.356Z,4.30
2019-03-15T17:03:49.653Z,4.97
2019-03-15T17:06:17.723Z,4.07
2019-03-15T17:08:45.910Z,4.30
2019-03-15T17:11:15.160Z,4.37
2019-03-15T17:13:43.207Z,5.10
2019-03-15T17:16:11.434Z,4.10
2019-03-15T17:18:39.966Z,4.60
2019-03-15T17:21:08.102Z,4.80
2019-03-15T17:23:36.277Z,4.57
2019-03-15T17:26:04.441Z,5.53
2019-03-15T17:28:32.579Z,4.47
2019-03-15T17:31:09.870Z,4.50
2019-03-15T17:33:30.703Z,4.93
2019-03-15T17:35:58.848Z,4.83
2019-03-15T17:38:28.790Z,4.87
2019-03-15T17:40:57.235Z,4.90
2019-03-15T17:43:25.396Z,4.37
2019-03-15T17:45:54.485Z,5.27
2019-03-15T17:48:22.662Z,4.50
2019-03-15T17:50:50.717Z,4.73
2019-03-15T17:53:18.823Z,5.70
2019-03-15T17:55:47.341Z,5.63
2019-03-15T17:58:15.411Z,4.83
2019-03-15T18:00:47.106Z,4.77
2019-03-15T18:03:21.504Z,5.30
2019-03-15T18:05:45.633Z,5.30
2019-03-15T18:08:13.777Z,5.93
2019-03-15T18:10:42.145Z,5.03
2019-03-15T18:13:12.069Z,5.17
2019-03-15T18:15:40.138Z,5.10
2019-03-15T18:18:08.609Z,5.03
2019-03-15T18:20:36.809Z,4.70
2019-03-15T18:23:06.687Z,5.77
2019-03-15T18:25:35.121Z,5.23
2019-03-15T18:28:04.406Z,5.60
2019-03-15T18:30:32.585Z,5.03
2019-03-15T18:33:00.955Z,5.27
2019-03-15T18:35:33.903Z,11.13
2019-03-15T18:37:58.843Z,4.70
2019-03-15T18:40:27.642Z,7.40
2019-03-15T18:42:55.823Z,5.73
2019-03-15T18:45:23.913Z,5.43
2019-03-15T18:47:52.316Z,5.43
2019-03-15T18:50:21.189Z,6.37
2019-03-15T18:52:49.284Z,6.57
2019-03-15T18:55:18.677Z,6.10
2019-03-15T18:57:47.290Z,6.30
2019-03-15T19:00:16.521Z,6.50
2019-03-15T19:02:44.957Z,6.03
2019-03-15T19:05:13.331Z,5.97
2019-03-15T19:07:41.509Z,5.33
2019-03-15T19:10:09.770Z,6.33
2019-03-15T19:12:38.020Z,5.53
2019-03-15T19:15:06.188Z,5.30
2019-03-15T19:17:34.423Z,4.67
2019-03-15T19:20:02.613Z,5.13
2019-03-15T19:22:30.648Z,6.27
2019-03-15T19:24:58.969Z,5.20
2019-03-15T19:27:27.253Z,7.27
2019-03-15T19:29:55.531Z,5.97
2019-03-15T19:32:24.776Z,5.80
2019-03-15T19:34:52.900Z,6.03
2019-03-15T19:37:21.079Z,5.47
2019-03-15T19:39:49.428Z,9.53
2019-03-15T19:42:17.927Z,7.77
2019-03-15T19:44:46.032Z,6.43
2019-03-15T19:47:14.514Z,7.57
2019-03-15T19:49:42.792Z,5.83
2019-03-15T19:52:10.967Z,5.20
2019-03-15T19:54:39.088Z,6.17
2019-03-15T19:57:07.332Z,4.93
2019-03-15T19:59:35.508Z,5.70
2019-03-15T20:02:03.683Z,9.07
2019-03-15T20:04:32.987Z,8.23
2019-03-15T20:07:01.157Z,5.27
2019-03-15T20:09:29.437Z,5.63
2019-03-15T20:11:57.520Z,5.73
2019-03-15T20:14:25.601Z,5.70
2019-03-15T20:16:53.977Z,6.03
2019-03-15T20:19:22.065Z,7.00
2019-03-15T20:21:50.156Z,5.13
2019-03-15T20:24:19.770Z,6.43
2019-03-15T20:26:48.023Z,7.97
2019-03-15T20:29:16.212Z,6.30
2019-03-15T20:31:46.634Z,6.17
2019-03-15T20:34:14.811Z,8.13
2019-03-15T20:36:44.725Z,5.97
2019-03-15T20:39:13.032Z,5.63
2019-03-15T20:41:41.192Z,6.20
2019-03-15T20:44:09.719Z,7.43
2019-03-15T20:46:39.986Z,6.30
2019-03-15T20:49:09.223Z,6.27
2019-03-15T20:51:37.505Z,6.43
2019-03-15T20:54:06.889Z,6.97
2019-03-15T20:56:35.037Z,6.23
2019-03-15T20:59:03.157Z,5.67
2019-03-15T21:01:31.535Z,6.37
2019-03-15T21:03:59.609Z,6.40
2019-03-15T21:06:27.771Z,6.23
2019-03-15T21:08:55.850Z,6.37
2019-03-15T21:11:24.039Z,6.80
2019-03-15T21:13:53.440Z,6.70
2019-03-15T21:16:21.914Z,7.93
2019-03-15T21:18:49.978Z,9.30
2019-03-15T21:21:22.376Z,6.80
2019-03-15T21:23:51.863Z,6.77
2019-03-15T21:26:19.917Z,6.03
2019-03-15T21:28:47.972Z,5.93
2019-03-15T21:31:16.478Z,5.43
2019-03-15T21:33:44.631Z,5.63
2019-03-15T21:36:13.827Z,5.97
2019-03-15T21:38:48.012Z,5.83
2019-03-15T21:41:12.215Z,6.03
2019-03-15T21:43:41.742Z,6.50
2019-03-15T21:46:11.460Z,7.73
2019-03-15T21:48:39.499Z,5.77
2019-03-15T21:51:07.599Z,7.60
2019-03-15T21:53:36.061Z,6.27
2019-03-15T21:56:04.091Z,5.90
2019-03-15T21:58:32.193Z,6.43
2019-03-15T22:01:02.574Z,6.30
2019-03-15T22:03:30.292Z,5.90
2019-03-15T22:05:58.406Z,6.03
2019-03-15T22:08:26.580Z,6.97
2019-03-15T22:10:56.445Z,6.27
2019-03-15T22:13:24.570Z,7.77
2019-03-15T22:15:52.958Z,7.07
2019-03-15T22:18:21.137Z,5.73
2019-03-15T22:20:49.326Z,6.70
2019-03-15T22:23:19.533Z,6.10
2019-03-15T22:25:47.854Z,6.47
2019-03-15T22:28:17.385Z,5.87
2019-03-15T22:30:45.502Z,6.37
2019-03-15T22:33:13.981Z,5.93
2019-03-15T22:35:43.169Z,6.30
2019-03-15T22:38:25.057Z,5.50
2019-03-15T22:40:41.659Z,7.17
2019-03-15T22:43:10.053Z,5.90
2019-03-15T22:45:42.135Z,7.17
2019-03-15T22:48:10.530Z,9.27
2019-03-15T22:50:38.671Z,5.27
2019-03-15T22:53:07.175Z,5.93
2019-03-15T22:55:35.289Z,6.10
2019-03-15T22:58:04.812Z,6.80
2019-03-15T23:00:37.202Z,5.93
2019-03-15T23:03:06.237Z,6.63
2019-03-15T23:05:34.661Z,6.27
2019-03-15T23:08:04.041Z,6.23
2019-03-15T23:10:32.280Z,5.90
2019-03-15T23:13:00.447Z,6.47
2019-03-15T23:15:28.772Z,7.53
2019-03-15T23:17:56.862Z,6.37
2019-03-15T23:20:26.778Z,6.27
2019-03-15T23:22:55.137Z,6.53
2019-03-15T23:25:23.494Z,5.97
2019-03-15T23:27:51.815Z,6.13
2019-03-15T23:30:20.160Z,6.37
2019-03-15T23:32:48.350Z,5.83
2019-03-15T23:35:16.758Z,5.30
2019-03-15T23:37:45.321Z,6.03
2019-03-15T23:40:13.430Z,6.47
2019-03-15T23:42:41.625Z,5.77
2019-03-15T23:45:11.027Z,6.83
2019-03-15T23:47:39.197Z,5.67
2019-03-15T23:50:07.999Z,5.70
2019-03-15T23:52:36.365Z,5.73
2019-03-15T23:55:04.752Z,6.33
2019-03-15T23:57:32.898Z,5.70
